sensor_id;sensor_type;location;lat;lon;timestamp;pressure;altitude;pressure_sealevel;temperature;humidity
3968;BME280;9221;42.646;23.380;2023-02-03T00:00:55;94691.31;;;3.96;71.82
3968;BME280;9221;42.646;23.380;2023-02-03T00:03:20;94704.16;;;3.86;72.39
3968;BME280;9221;42.646;23.380;2023-02-03T00:05:45;94658.94;;;3.61;72.69
3968;BME280;9221;42.646;23.380;2023-02-03T00:08:12;94693.97;;;3.83;72.74
3968;BME280;9221;42.646;23.380;2023-02-03T00:10:38;94660.91;;;3.58;73.37
3968;BME280;9221;42.646;23.380;2023-02-03T00:13:04;94738.72;;;3.77;74.20
3968;BME280;9221;42.646;23.380;2023-02-03T00:15:30;94759.56;;;3.77;74.60
3968;BME280;9221;42.646;23.380;2023-02-03T00:17:56;94724.28;;;3.84;75.37
3968;BME280;9221;42.646;23.380;2023-02-03T00:20:21;94773.38;;;3.79;75.53
3968;BME280;9221;42.646;23.380;2023-02-03T00:22:47;94737.03;;;3.76;76.11
3968;BME280;9221;42.646;23.380;2023-02-03T00:25:12;94663.22;;;3.36;76.47
3968;BME280;9221;42.646;23.380;2023-02-03T00:27:37;94691.78;;;3.51;76.30
3968;BME280;9221;42.646;23.380;2023-02-03T00:30:03;94689.91;;;3.27;76.88
3968;BME280;9221;42.646;23.380;2023-02-03T00:32:28;94720.25;;;3.54;77.08
3968;BME280;9221;42.646;23.380;2023-02-03T00:34:54;94733.59;;;3.62;77.61
3968;BME280;9221;42.646;23.380;2023-02-03T00:37:19;94736.19;;;3.62;78.30
3968;BME280;9221;42.646;23.380;2023-02-03T00:39:45;94781.28;;;3.64;78.31
3968;BME280;9221;42.646;23.380;2023-02-03T00:42:11;94797.63;;;3.53;79.22
3968;BME280;9221;42.646;23.380;2023-02-03T00:44:36;94631.81;;;2.74;79.52
3968;BME280;9221;42.646;23.380;2023-02-03T00:47:01;94784.31;;;3.18;80.25
3968;BME280;9221;42.646;23.380;2023-02-03T00:49:27;94689.66;;;3.04;80.19
3968;BME280;9221;42.646;23.380;2023-02-03T00:51:52;94757.78;;;3.38;80.46
3968;BME280;9221;42.646;23.380;2023-02-03T00:54:17;94757.81;;;3.51;80.58
3968;BME280;9221;42.646;23.380;2023-02-03T00:56:43;94757.47;;;3.56;80.83
3968;BME280;9221;42.646;23.380;2023-02-03T00:59:08;94802.94;;;3.52;80.74
3968;BME280;9221;42.646;23.380;2023-02-03T01:01:34;94753.72;;;3.60;80.93
3968;BME280;9221;42.646;23.380;2023-02-03T01:04:00;94778.94;;;3.47;80.66
3968;BME280;9221;42.646;23.380;2023-02-03T01:06:25;94707.63;;;3.22;80.63
3968;BME280;9221;42.646;23.380;2023-02-03T01:08:51;94801.91;;;3.67;80.65
3968;BME280;9221;42.646;23.380;2023-02-03T01:11:19;94710.31;;;3.20;80.52
3968;BME280;9221;42.646;23.380;2023-02-03T01:13:45;94608.63;;;2.43;80.98
3968;BME280;9221;42.646;23.380;2023-02-03T01:16:13;94882.31;;;3.48;81.88
3968;BME280;9221;42.646;23.380;2023-02-03T01:18:39;94780.41;;;3.51;82.11
3968;BME280;9221;42.646;23.380;2023-02-03T01:21:17;94785.19;;;3.44;82.47
3968;BME280;9221;42.646;23.380;2023-02-03T01:23:43;94751.91;;;3.22;83.10
3968;BME280;9221;42.646;23.380;2023-02-03T01:26:14;94743.06;;;3.12;82.94
3968;BME280;9221;42.646;23.380;2023-02-03T01:28:40;94799.09;;;3.45;82.36
3968;BME280;9221;42.646;23.380;2023-02-03T01:31:33;94758.31;;;3.44;81.99
3968;BME280;9221;42.646;23.380;2023-02-03T01:34:10;94751.69;;;3.25;82.22
3968;BME280;9221;42.646;23.380;2023-02-03T01:36:36;94795.41;;;3.21;81.51
3968;BME280;9221;42.646;23.380;2023-02-03T01:39:03;94766.84;;;3.20;81.21
3968;BME280;9221;42.646;23.380;2023-02-03T01:41:32;94760.47;;;3.24;80.67
3968;BME280;9221;42.646;23.380;2023-02-03T01:44:00;94728.41;;;2.96;80.16
3968;BME280;9221;42.646;23.380;2023-02-03T01:46:29;94827.53;;;3.35;79.38
3968;BME280;9221;42.646;23.380;2023-02-03T01:49:09;94786.34;;;3.27;79.57
3968;BME280;9221;42.646;23.380;2023-02-03T01:51:39;94667.06;;;2.52;79.91
3968;BME280;9221;42.646;23.380;2023-02-03T01:54:06;94781.44;;;3.35;79.62
3968;BME280;9221;42.646;23.380;2023-02-03T01:56:35;94724.06;;;2.97;79.89
3968;BME280;9221;42.646;23.380;2023-02-03T01:59:03;94783.94;;;3.37;79.79
3968;BME280;9221;42.646;23.380;2023-02-03T02:01:30;94789.59;;;3.31;79.05
3968;BME280;9221;42.646;23.380;2023-02-03T02:03:58;94771.59;;;3.13;79.24
3968;BME280;9221;42.646;23.380;2023-02-03T02:06:25;94765.63;;;2.98;79.57
3968;BME280;9221;42.646;23.380;2023-02-03T02:08:52;94777.41;;;3.04;79.93
3968;BME280;9221;42.646;23.380;2023-02-03T02:11:18;94778.06;;;3.08;79.57
3968;BME280;9221;42.646;23.380;2023-02-03T02:13:49;94843.19;;;3.08;79.97
3968;BME280;9221;42.646;23.380;2023-02-03T02:25:13;94798.69;;;3.11;79.75
3968;BME280;9221;42.646;23.380;2023-02-03T02:33:48;94795.97;;;2.99;79.89
3968;BME280;9221;42.646;23.380;2023-02-03T02:41:23;94825.72;;;2.95;79.17
3968;BME280;9221;42.646;23.380;2023-02-03T02:44:00;94807.59;;;2.94;79.46
3968;BME280;9221;42.646;23.380;2023-02-03T02:46:36;94813.31;;;2.86;79.39
3968;BME280;9221;42.646;23.380;2023-02-03T02:49:12;94794.88;;;2.89;79.50
3968;BME280;9221;42.646;23.380;2023-02-03T02:51:41;94814.22;;;2.85;78.83
3968;BME280;9221;42.646;23.380;2023-02-03T02:54:13;94728.97;;;2.47;78.81
3968;BME280;9221;42.646;23.380;2023-02-03T02:56:40;94785.53;;;2.72;79.07
3968;BME280;9221;42.646;23.380;2023-02-03T02:59:08;94798.25;;;2.77;78.39
3968;BME280;9221;42.646;23.380;2023-02-03T03:01:34;94728.84;;;2.35;78.38
3968;BME280;9221;42.646;23.380;2023-02-03T03:04:01;94804.63;;;2.85;78.11
3968;BME280;9221;42.646;23.380;2023-02-03T03:06:35;94792.13;;;2.78;78.09
3968;BME280;9221;42.646;23.380;2023-02-03T03:09:14;94730.50;;;2.36;77.94
3968;BME280;9221;42.646;23.380;2023-02-03T03:11:45;94810.00;;;2.69;77.24
3968;BME280;9221;42.646;23.380;2023-02-03T03:14:14;94818.94;;;2.65;77.83
3968;BME280;9221;42.646;23.380;2023-02-03T03:16:46;94818.34;;;2.75;77.46
3968;BME280;9221;42.646;23.380;2023-02-03T03:19:17;94830.22;;;2.79;76.85
3968;BME280;9221;42.646;23.380;2023-02-03T03:22:04;94819.81;;;2.79;76.83
3968;BME280;9221;42.646;23.380;2023-02-03T03:24:33;94792.38;;;2.46;76.40
3968;BME280;9221;42.646;23.380;2023-02-03T03:27:05;94812.06;;;2.64;76.27
3968;BME280;9221;42.646;23.380;2023-02-03T03:29:34;94826.25;;;2.73;76.27
3968;BME280;9221;42.646;23.380;2023-02-03T03:32:02;94730.72;;;2.19;76.19
3968;BME280;9221;42.646;23.380;2023-02-03T03:34:29;94822.25;;;2.67;75.68
3968;BME280;9221;42.646;23.380;2023-02-03T03:37:49;94835.63;;;2.76;75.19
3968;BME280;9221;42.646;23.380;2023-02-03T03:40:11;94837.31;;;2.77;74.84
3968;BME280;9221;42.646;23.380;2023-02-03T03:42:46;94877.81;;;2.68;74.70
3968;BME280;9221;42.646;23.380;2023-02-03T03:47:58;94811.00;;;2.40;74.10
3968;BME280;9221;42.646;23.380;2023-02-03T03:50:30;94872.75;;;2.79;74.28
3968;BME280;9221;42.646;23.380;2023-02-03T03:52:59;94768.06;;;2.32;74.36
3968;BME280;9221;42.646;23.380;2023-02-03T03:55:28;94787.72;;;2.51;74.07
3968;BME280;9221;42.646;23.380;2023-02-03T04:00:27;94864.19;;;2.77;74.40
3968;BME280;9221;42.646;23.380;2023-02-03T04:02:56;94891.25;;;2.75;74.32
3968;BME280;9221;42.646;23.380;2023-02-03T04:05:23;94821.56;;;2.51;74.20
3968;BME280;9221;42.646;23.380;2023-02-03T04:07:48;94859.22;;;2.87;73.71
3968;BME280;9221;42.646;23.380;2023-02-03T04:10:31;94865.75;;;2.94;73.75
3968;BME280;9221;42.646;23.380;2023-02-03T04:12:57;94899.09;;;2.60;73.56
3968;BME280;9221;42.646;23.380;2023-02-03T04:15:23;94926.00;;;3.02;73.94
3968;BME280;9221;42.646;23.380;2023-02-03T04:17:48;94820.41;;;2.69;74.10
3968;BME280;9221;42.646;23.380;2023-02-03T04:20:14;94857.63;;;2.99;73.86
3968;BME280;9221;42.646;23.380;2023-02-03T04:22:40;94888.75;;;3.15;73.89
3968;BME280;9221;42.646;23.380;2023-02-03T04:25:06;94841.50;;;2.79;74.00
3968;BME280;9221;42.646;23.380;2023-02-03T04:27:31;94951.28;;;3.15;74.14
3968;BME280;9221;42.646;23.380;2023-02-03T04:29:57;94842.31;;;2.80;74.18
3968;BME280;9221;42.646;23.380;2023-02-03T04:32:22;94902.13;;;3.23;74.28
3968;BME280;9221;42.646;23.380;2023-02-03T04:34:48;94834.63;;;2.78;73.78
3968;BME280;9221;42.646;23.380;2023-02-03T04:37:13;94867.03;;;3.01;74.08
3968;BME280;9221;42.646;23.380;2023-02-03T04:39:39;94932.69;;;3.07;73.79
3968;BME280;9221;42.646;23.380;2023-02-03T04:42:05;94922.72;;;3.13;73.95
3968;BME280;9221;42.646;23.380;2023-02-03T04:44:30;94839.22;;;2.60;74.24
3968;BME280;9221;42.646;23.380;2023-02-03T04:46:55;94917.63;;;2.97;74.68
3968;BME280;9221;42.646;23.380;2023-02-03T04:49:21;94901.84;;;2.71;75.09
3968;BME280;9221;42.646;23.380;2023-02-03T04:51:49;94875.09;;;2.55;74.67
3968;BME280;9221;42.646;23.380;2023-02-03T04:54:14;94882.34;;;2.64;75.03
3968;BME280;9221;42.646;23.380;2023-02-03T04:56:40;94862.00;;;2.57;75.33
3968;BME280;9221;42.646;23.380;2023-02-03T04:59:06;94961.00;;;2.98;75.39
3968;BME280;9221;42.646;23.380;2023-02-03T05:01:31;94879.66;;;2.51;74.76
3968;BME280;9221;42.646;23.380;2023-02-03T05:03:57;94906.16;;;2.73;74.97
3968;BME280;9221;42.646;23.380;2023-02-03T05:06:27;94930.09;;;2.92;75.02
3968;BME280;9221;42.646;23.380;2023-02-03T05:08:57;94944.25;;;3.02;74.73
3968;BME280;9221;42.646;23.380;2023-02-03T05:11:22;94928.63;;;2.88;74.52
3968;BME280;9221;42.646;23.380;2023-02-03T05:13:47;94886.28;;;2.57;74.67
3968;BME280;9221;42.646;23.380;2023-02-03T05:16:13;94932.91;;;2.89;74.76
3968;BME280;9221;42.646;23.380;2023-02-03T05:18:39;94943.53;;;2.86;74.84
3968;BME280;9221;42.646;23.380;2023-02-03T05:21:04;94948.44;;;2.91;74.26
3968;BME280;9221;42.646;23.380;2023-02-03T05:23:30;95026.22;;;2.97;74.31
3968;BME280;9221;42.646;23.380;2023-02-03T05:25:55;94893.31;;;2.55;74.47
3968;BME280;9221;42.646;23.380;2023-02-03T05:28:21;94890.72;;;2.55;74.30
3968;BME280;9221;42.646;23.380;2023-02-03T05:30:46;94910.78;;;2.67;74.55
3968;BME280;9221;42.646;23.380;2023-02-03T05:33:11;94962.84;;;3.11;74.57
3968;BME280;9221;42.646;23.380;2023-02-03T05:35:37;94905.75;;;2.79;74.43
3968;BME280;9221;42.646;23.380;2023-02-03T05:38:02;94937.56;;;2.98;74.12
3968;BME280;9221;42.646;23.380;2023-02-03T05:40:28;94983.53;;;2.99;74.72
3968;BME280;9221;42.646;23.380;2023-02-03T05:43:12;94958.28;;;3.00;74.71
3968;BME280;9221;42.646;23.380;2023-02-03T05:45:38;94957.94;;;2.92;74.90
3968;BME280;9221;42.646;23.380;2023-02-03T05:48:03;94963.25;;;2.90;74.95
3968;BME280;9221;42.646;23.380;2023-02-03T05:50:30;94966.78;;;2.89;74.97
3968;BME280;9221;42.646;23.380;2023-02-03T05:53:02;94989.44;;;2.87;75.07
3968;BME280;9221;42.646;23.380;2023-02-03T05:55:28;94916.78;;;2.41;74.76
3968;BME280;9221;42.646;23.380;2023-02-03T05:57:54;94926.06;;;2.45;74.99
3968;BME280;9221;42.646;23.380;2023-02-03T06:00:21;94972.34;;;2.83;74.91
3968;BME280;9221;42.646;23.380;2023-02-03T06:03:05;94995.22;;;2.63;75.01
3968;BME280;9221;42.646;23.380;2023-02-03T06:05:32;94905.22;;;2.30;75.21
3968;BME280;9221;42.646;23.380;2023-02-03T06:07:58;94785.63;;;1.42;75.97
3968;BME280;9221;42.646;23.380;2023-02-03T06:10:23;95003.88;;;2.64;75.47
3968;BME280;9221;42.646;23.380;2023-02-03T06:12:49;94964.75;;;2.65;75.17
3968;BME280;9221;42.646;23.380;2023-02-03T06:15:15;94973.09;;;2.70;75.09
3968;BME280;9221;42.646;23.380;2023-02-03T06:17:47;94970.78;;;2.66;75.00
3968;BME280;9221;42.646;23.380;2023-02-03T06:20:15;94985.84;;;2.75;75.36
3968;BME280;9221;42.646;23.380;2023-02-03T06:22:41;95034.22;;;2.79;75.05
3968;BME280;9221;42.646;23.380;2023-02-03T06:25:07;94988.34;;;2.77;74.75
3968;BME280;9221;42.646;23.380;2023-02-03T06:27:33;95033.34;;;2.79;74.36
3968;BME280;9221;42.646;23.380;2023-02-03T06:29:58;94917.31;;;2.46;73.94
3968;BME280;9221;42.646;23.380;2023-02-03T06:32:24;95005.28;;;2.98;73.64
3968;BME280;9221;42.646;23.380;2023-02-03T06:34:49;94998.09;;;3.02;73.23
3968;BME280;9221;42.646;23.380;2023-02-03T06:37:15;95036.53;;;3.13;72.57
3968;BME280;9221;42.646;23.380;2023-02-03T06:39:40;95037.94;;;3.04;72.19
3968;BME280;9221;42.646;23.380;2023-02-03T06:42:06;95038.59;;;3.08;72.25
3968;BME280;9221;42.646;23.380;2023-02-03T06:44:31;95000.25;;;3.10;71.93
3968;BME280;9221;42.646;23.380;2023-02-03T06:46:57;95008.22;;;3.21;71.34
3968;BME280;9221;42.646;23.380;2023-02-03T06:49:23;95035.25;;;3.20;70.96
3968;BME280;9221;42.646;23.380;2023-02-03T06:51:49;94943.13;;;2.92;70.67
3968;BME280;9221;42.646;23.380;2023-02-03T06:54:14;95005.41;;;3.38;70.07
3968;BME280;9221;42.646;23.380;2023-02-03T06:56:40;94936.78;;;3.11;69.30
3968;BME280;9221;42.646;23.380;2023-02-03T06:59:05;94940.47;;;3.21;68.64
3968;BME280;9221;42.646;23.380;2023-02-03T07:01:31;94999.88;;;3.58;68.44
3968;BME280;9221;42.646;23.380;2023-02-03T07:03:57;94934.09;;;3.39;67.85
3968;BME280;9221;42.646;23.380;2023-02-03T07:06:26;94994.59;;;3.99;67.41
3968;BME280;9221;42.646;23.380;2023-02-03T07:08:54;94939.41;;;3.65;66.86
3968;BME280;9221;42.646;23.380;2023-02-03T07:11:21;94991.69;;;4.04;67.18
3968;BME280;9221;42.646;23.380;2023-02-03T07:13:46;94943.59;;;3.68;66.97
3968;BME280;9221;42.646;23.380;2023-02-03T07:16:12;95003.69;;;4.06;67.09
3968;BME280;9221;42.646;23.380;2023-02-03T07:18:37;94978.47;;;4.20;66.25
3968;BME280;9221;42.646;23.380;2023-02-03T07:21:04;94915.69;;;4.09;65.52
3968;BME280;9221;42.646;23.380;2023-02-03T07:23:29;95003.47;;;4.75;64.39
3968;BME280;9221;42.646;23.380;2023-02-03T07:25:58;95007.13;;;4.86;63.65
3968;BME280;9221;42.646;23.380;2023-02-03T07:28:23;95006.19;;;5.00;62.87
3968;BME280;9221;42.646;23.380;2023-02-03T07:30:49;94939.53;;;4.55;62.46
3968;BME280;9221;42.646;23.380;2023-02-03T07:33:14;95002.63;;;4.88;62.86
3968;BME280;9221;42.646;23.380;2023-02-03T07:35:40;95022.25;;;5.19;61.69
3968;BME280;9221;42.646;23.380;2023-02-03T07:38:05;94979.03;;;4.89;61.25
3968;BME280;9221;42.646;23.380;2023-02-03T07:40:30;94958.47;;;5.22;61.19
3968;BME280;9221;42.646;23.380;2023-02-03T07:42:56;95015.19;;;5.83;60.19
3968;BME280;9221;42.646;23.380;2023-02-03T07:45:21;94953.13;;;5.61;58.83
3968;BME280;9221;42.646;23.380;2023-02-03T07:47:49;95058.13;;;5.80;59.17
3968;BME280;9221;42.646;23.380;2023-02-03T07:50:14;95021.56;;;5.67;58.60
3968;BME280;9221;42.646;23.380;2023-02-03T07:52:39;95024.97;;;5.31;58.44
3968;BME280;9221;42.646;23.380;2023-02-03T07:55:05;94966.59;;;5.67;58.41
3968;BME280;9221;42.646;23.380;2023-02-03T07:57:31;94975.00;;;5.84;57.81
3968;BME280;9221;42.646;23.380;2023-02-03T07:59:56;95051.44;;;6.13;57.95
3968;BME280;9221;42.646;23.380;2023-02-03T08:02:22;95045.78;;;6.19;57.60
3968;BME280;9221;42.646;23.380;2023-02-03T08:04:47;95030.25;;;6.40;56.58
3968;BME280;9221;42.646;23.380;2023-02-03T08:07:12;95029.81;;;6.58;56.58
3968;BME280;9221;42.646;23.380;2023-02-03T08:09:38;95013.66;;;6.75;55.52
3968;BME280;9221;42.646;23.380;2023-02-03T08:12:03;94857.81;;;6.12;55.57
3968;BME280;9221;42.646;23.380;2023-02-03T08:14:29;94997.72;;;6.90;54.42
3968;BME280;9221;42.646;23.380;2023-02-03T08:16:55;94983.06;;;6.29;55.52
3968;BME280;9221;42.646;23.380;2023-02-03T08:19:20;95040.63;;;7.11;54.97
3968;BME280;9221;42.646;23.380;2023-02-03T08:21:46;95034.94;;;7.18;54.68
3968;BME280;9221;42.646;23.380;2023-02-03T08:24:11;94963.88;;;6.87;54.21
3968;BME280;9221;42.646;23.380;2023-02-03T08:26:37;95069.53;;;7.45;53.52
3968;BME280;9221;42.646;23.380;2023-02-03T08:29:03;95049.97;;;7.50;53.01
3968;BME280;9221;42.646;23.380;2023-02-03T08:31:29;95029.44;;;7.21;53.69
3968;BME280;9221;42.646;23.380;2023-02-03T08:33:55;95004.16;;;6.97;52.75
3968;BME280;9221;42.646;23.380;2023-02-03T08:36:20;94981.16;;;6.89;53.13
3968;BME280;9221;42.646;23.380;2023-02-03T08:38:45;95022.91;;;7.49;51.85
3968;BME280;9221;42.646;23.380;2023-02-03T08:41:14;95012.81;;;7.77;50.81
3968;BME280;9221;42.646;23.380;2023-02-03T08:43:40;95047.44;;;8.14;49.47
3968;BME280;9221;42.646;23.380;2023-02-03T08:46:08;94888.41;;;7.57;48.77
3968;BME280;9221;42.646;23.380;2023-02-03T08:48:34;95112.44;;;8.01;48.59
3968;BME280;9221;42.646;23.380;2023-02-03T08:50:59;95022.38;;;7.78;49.87
3968;BME280;9221;42.646;23.380;2023-02-03T08:53:25;95016.84;;;7.92;49.95
3968;BME280;9221;42.646;23.380;2023-02-03T08:55:51;95052.91;;;7.90;49.44
3968;BME280;9221;42.646;23.380;2023-02-03T08:58:17;95120.59;;;8.42;49.43
3968;BME280;9221;42.646;23.380;2023-02-03T09:00:43;95084.16;;;9.23;48.50
3968;BME280;9221;42.646;23.380;2023-02-03T09:03:09;95072.94;;;9.00;47.53
3968;BME280;9221;42.646;23.380;2023-02-03T09:05:35;95058.56;;;9.04;47.99
3968;BME280;9221;42.646;23.380;2023-02-03T09:08:01;95076.66;;;9.19;48.24
3968;BME280;9221;42.646;23.380;2023-02-03T09:10:27;95100.75;;;9.24;48.38
3968;BME280;9221;42.646;23.380;2023-02-03T09:12:52;95059.88;;;9.20;47.89
3968;BME280;9221;42.646;23.380;2023-02-03T09:15:17;95077.84;;;9.36;48.86
3968;BME280;9221;42.646;23.380;2023-02-03T09:17:43;94950.66;;;8.73;48.19
3968;BME280;9221;42.646;23.380;2023-02-03T09:20:09;95053.13;;;9.98;47.39
3968;BME280;9221;42.646;23.380;2023-02-03T09:22:37;95040.31;;;9.84;46.81
3968;BME280;9221;42.646;23.380;2023-02-03T09:25:02;95019.50;;;9.71;46.62
3968;BME280;9221;42.646;23.380;2023-02-03T09:27:28;95075.25;;;9.45;48.04
3968;BME280;9221;42.646;23.380;2023-02-03T09:29:53;94993.31;;;9.29;48.31
3968;BME280;9221;42.646;23.380;2023-02-03T09:32:19;95038.06;;;9.60;48.20
3968;BME280;9221;42.646;23.380;2023-02-03T09:34:44;95066.63;;;9.74;47.30
3968;BME280;9221;42.646;23.380;2023-02-03T09:37:09;95063.84;;;9.66;48.08
3968;BME280;9221;42.646;23.380;2023-02-03T09:39:35;94978.28;;;9.10;47.20
3968;BME280;9221;42.646;23.380;2023-02-03T09:44:42;95034.44;;;7.24;51.60
3968;BME280;9221;42.646;23.380;2023-02-03T09:47:23;94982.47;;;6.95;53.08
3968;BME280;9221;42.646;23.380;2023-02-03T09:49:55;94976.63;;;7.37;51.02
3968;BME280;9221;42.646;23.380;2023-02-03T09:57:34;95070.22;;;8.69;48.19
3968;BME280;9221;42.646;23.380;2023-02-03T10:00:08;94984.25;;;8.27;47.00
3968;BME280;9221;42.646;23.380;2023-02-03T10:05:46;95037.00;;;8.68;46.70
3968;BME280;9221;42.646;23.380;2023-02-03T10:10:41;95044.44;;;9.67;46.07
3968;BME280;9221;42.646;23.380;2023-02-03T10:19:12;95077.88;;;8.72;45.31
3968;BME280;9221;42.646;23.380;2023-02-03T10:21:49;95052.97;;;8.44;49.23
3968;BME280;9221;42.646;23.380;2023-02-03T10:24:38;94991.88;;;7.98;50.32
3968;BME280;9221;42.646;23.380;2023-02-03T10:27:07;95026.97;;;7.97;49.91
3968;BME280;9221;42.646;23.380;2023-02-03T10:29:38;95051.22;;;7.89;50.19
3968;BME280;9221;42.646;23.380;2023-02-03T10:32:10;94982.00;;;7.24;50.40
3968;BME280;9221;42.646;23.380;2023-02-03T10:34:36;94883.06;;;6.24;50.71
3968;BME280;9221;42.646;23.380;2023-02-03T10:39:51;94971.41;;;7.03;51.50
3968;BME280;9221;42.646;23.380;2023-02-03T10:42:17;95054.72;;;7.44;51.97
3968;BME280;9221;42.646;23.380;2023-02-03T10:44:59;95015.63;;;7.30;49.88
3968;BME280;9221;42.646;23.380;2023-02-03T10:47:34;94961.47;;;6.72;49.37
3968;BME280;9221;42.646;23.380;2023-02-03T10:50:05;95035.69;;;6.73;50.59
3968;BME280;9221;42.646;23.380;2023-02-03T10:52:35;95055.78;;;6.61;50.97
3968;BME280;9221;42.646;23.380;2023-02-03T10:55:06;94991.59;;;6.20;51.95
3968;BME280;9221;42.646;23.380;2023-02-03T10:57:35;95056.00;;;6.47;52.57
3968;BME280;9221;42.646;23.380;2023-02-03T11:00:21;95000.88;;;6.13;52.28
3968;BME280;9221;42.646;23.380;2023-02-03T11:05:39;95030.34;;;5.66;51.53
3968;BME280;9221;42.646;23.380;2023-02-03T11:08:13;94976.28;;;5.17;52.03
3968;BME280;9221;42.646;23.380;2023-02-03T11:10:39;95076.16;;;5.59;50.52
3968;BME280;9221;42.646;23.380;2023-02-03T11:21:16;94980.03;;;5.13;51.24
3968;BME280;9221;42.646;23.380;2023-02-03T11:23:49;95035.13;;;5.72;50.98
3968;BME280;9221;42.646;23.380;2023-02-03T11:26:23;95023.94;;;6.07;49.81
3968;BME280;9221;42.646;23.380;2023-02-03T11:28:52;94987.69;;;5.53;49.53
3968;BME280;9221;42.646;23.380;2023-02-03T11:31:24;94819.00;;;4.49;49.55
3968;BME280;9221;42.646;23.380;2023-02-03T11:33:54;94957.59;;;5.34;48.85
3968;BME280;9221;42.646;23.380;2023-02-03T11:36:20;94886.34;;;4.69;47.55
3968;BME280;9221;42.646;23.380;2023-02-03T11:38:46;95011.94;;;5.55;48.27
3968;BME280;9221;42.646;23.380;2023-02-03T11:41:17;95006.41;;;5.47;49.00
3968;BME280;9221;42.646;23.380;2023-02-03T11:43:43;94984.25;;;5.39;49.55
3968;BME280;9221;42.646;23.380;2023-02-03T11:46:09;94951.81;;;5.05;49.61
3968;BME280;9221;42.646;23.380;2023-02-03T11:48:36;94914.97;;;5.21;49.23
3968;BME280;9221;42.646;23.380;2023-02-03T12:01:51;94977.50;;;5.85;48.73
3968;BME280;9221;42.646;23.380;2023-02-03T12:07:29;94921.13;;;5.57;48.00
3968;BME280;9221;42.646;23.380;2023-02-03T12:18:38;94924.50;;;5.95;43.59
3968;BME280;9221;42.646;23.380;2023-02-03T12:26:20;94970.88;;;5.68;44.29
3968;BME280;9221;42.646;23.380;2023-02-03T12:36:47;94981.69;;;5.14;45.24
3968;BME280;9221;42.646;23.380;2023-02-03T12:40:11;94962.69;;;5.12;45.51
3968;BME280;9221;42.646;23.380;2023-02-03T12:42:50;94967.47;;;5.18;45.79
3968;BME280;9221;42.646;23.380;2023-02-03T12:45:28;94957.69;;;5.08;46.43
3968;BME280;9221;42.646;23.380;2023-02-03T12:47:56;95009.28;;;5.18;46.51
3968;BME280;9221;42.646;23.380;2023-02-03T12:50:35;94943.00;;;5.19;46.93
3968;BME280;9221;42.646;23.380;2023-02-03T12:53:18;94927.03;;;5.11;46.60
3968;BME280;9221;42.646;23.380;2023-02-03T12:56:04;94947.59;;;5.28;46.85
3968;BME280;9221;42.646;23.380;2023-02-03T12:58:35;94760.81;;;3.84;47.11
3968;BME280;9221;42.646;23.380;2023-02-03T13:01:25;94939.19;;;5.36;47.67
3968;BME280;9221;42.646;23.380;2023-02-03T13:09:37;94873.88;;;4.86;48.15
3968;BME280;9221;42.646;23.380;2023-02-03T13:12:29;94858.19;;;4.86;48.75
3968;BME280;9221;42.646;23.380;2023-02-03T13:17:53;94925.50;;;4.95;50.01
3968;BME280;9221;42.646;23.380;2023-02-03T13:20:23;94926.50;;;5.05;50.73
3968;BME280;9221;42.646;23.380;2023-02-03T13:22:49;94878.50;;;4.69;51.27
3968;BME280;9221;42.646;23.380;2023-02-03T13:37:20;94940.91;;;5.24;51.93
3968;BME280;9221;42.646;23.380;2023-02-03T13:40:21;94971.25;;;5.14;51.87
3968;BME280;9221;42.646;23.380;2023-02-03T13:42:59;94877.00;;;4.91;52.13
3968;BME280;9221;42.646;23.380;2023-02-03T13:45:39;94855.72;;;4.71;51.02
3968;BME280;9221;42.646;23.380;2023-02-03T13:48:21;94967.28;;;5.21;51.58
3968;BME280;9221;42.646;23.380;2023-02-03T13:50:50;94938.41;;;5.09;52.36
3968;BME280;9221;42.646;23.380;2023-02-03T13:53:26;94937.28;;;5.01;52.53
3968;BME280;9221;42.646;23.380;2023-02-03T13:56:05;94905.16;;;4.74;52.59
3968;BME280;9221;42.646;23.380;2023-02-03T13:58:33;94904.03;;;4.53;52.27
3968;BME280;9221;42.646;23.380;2023-02-03T14:05:58;94913.63;;;4.39;53.18
3968;BME280;9221;42.646;23.380;2023-02-03T14:16:33;94892.34;;;4.46;54.87
3968;BME280;9221;42.646;23.380;2023-02-03T14:18:59;94963.13;;;4.80;54.65
3968;BME280;9221;42.646;23.380;2023-02-03T14:21:24;94988.53;;;5.03;54.24
3968;BME280;9221;42.646;23.380;2023-02-03T14:23:58;94907.13;;;4.71;54.68
3968;BME280;9221;42.646;23.380;2023-02-03T14:27:14;94999.88;;;5.15;54.02
3968;BME280;9221;42.646;23.380;2023-02-03T14:29:29;94986.31;;;4.97;53.65
3968;BME280;9221;42.646;23.380;2023-02-03T14:34:32;94967.72;;;5.02;53.63
3968;BME280;9221;42.646;23.380;2023-02-03T14:37:20;94897.94;;;4.65;53.52
3968;BME280;9221;42.646;23.380;2023-02-03T14:53:23;94945.88;;;4.90;54.25
3968;BME280;9221;42.646;23.380;2023-02-03T14:58:29;94922.41;;;4.64;51.99
3968;BME280;9221;42.646;23.380;2023-02-03T15:00:56;94929.50;;;4.75;51.84
3968;BME280;9221;42.646;23.380;2023-02-03T15:03:24;94962.50;;;4.63;51.90
3968;BME280;9221;42.646;23.380;2023-02-03T15:06:04;94954.16;;;4.71;52.27
3968;BME280;9221;42.646;23.380;2023-02-03T15:13:52;94901.28;;;4.67;53.37
3968;BME280;9221;42.646;23.380;2023-02-03T15:16:20;94930.66;;;4.71;55.33
3968;BME280;9221;42.646;23.380;2023-02-03T15:18:53;94828.22;;;5.51;68.51
3968;BME280;9221;42.646;23.380;2023-02-03T15:21:19;94825.94;;;6.40;64.63
3968;BME280;9221;42.646;23.380;2023-02-03T15:23:46;94818.03;;;6.86;56.43
3968;BME280;9221;42.646;23.380;2023-02-03T15:26:22;94914.66;;;7.57;56.81
3968;BME280;9221;42.646;23.380;2023-02-03T15:28:58;94920.00;;;7.34;48.15
3968;BME280;9221;42.646;23.380;2023-02-03T15:33:53;94696.56;;;4.57;49.12
3968;BME280;9221;42.646;23.380;2023-02-03T15:36:29;94920.28;;;5.56;49.71
3968;BME280;9221;42.646;23.380;2023-02-03T15:41:40;94928.34;;;5.29;50.09
3968;BME280;9221;42.646;23.380;2023-02-03T15:44:20;94924.84;;;5.04;50.43
3968;BME280;9221;42.646;23.380;2023-02-03T15:46:51;94819.38;;;4.68;50.05
3968;BME280;9221;42.646;23.380;2023-02-03T15:49:38;94805.59;;;4.66;50.24
3968;BME280;9221;42.646;23.380;2023-02-03T15:52:11;94863.19;;;4.89;49.56
3968;BME280;9221;42.646;23.380;2023-02-03T15:54:41;94860.28;;;4.81;49.60
3968;BME280;9221;42.646;23.380;2023-02-03T15:57:17;94858.25;;;4.73;49.93
3968;BME280;9221;42.646;23.380;2023-02-03T15:59:54;94834.44;;;4.52;50.14
3968;BME280;9221;42.646;23.380;2023-02-03T16:02:30;94854.47;;;4.64;50.77
3968;BME280;9221;42.646;23.380;2023-02-03T16:05:04;94845.72;;;4.65;50.40
3968;BME280;9221;42.646;23.380;2023-02-03T16:07:35;94857.38;;;4.72;50.58
3968;BME280;9221;42.646;23.380;2023-02-03T16:10:00;94896.09;;;4.42;50.48